sensor_id;sensor_type;location;lat;lon;timestamp;pressure;altitude;pressure_sealevel;temperature
48628;BMP280;34424;52.234;6.500;2023-07-13T00:03:09;101266.6;;;13.98
48628;BMP280;34424;52.234;6.500;2023-07-13T00:08:09;101254.3;;;14.12
48628;BMP280;34424;52.234;6.500;2023-07-13T00:13:09;101262;;;14.15
48628;BMP280;34424;52.234;6.500;2023-07-13T00:18:09;101260.4;;;13.97
48628;BMP280;34424;52.234;6.500;2023-07-13T00:23:09;101258.6;;;13.73
48628;BMP280;34424;52.234;6.500;2023-07-13T00:28:09;101253.9;;;13.49
48628;BMP280;34424;52.234;6.500;2023-07-13T00:33:09;101257.5;;;13.37
48628;BMP280;34424;52.234;6.500;2023-07-13T00:38:09;101265.7;;;13.21
48628;BMP280;34424;52.234;6.500;2023-07-13T00:43:12;101267.5;;;13.04
48628;BMP280;34424;52.234;6.500;2023-07-13T00:48:09;101265.4;;;12.95
48628;BMP280;34424;52.234;6.500;2023-07-13T00:53:09;101263.4;;;12.83
48628;BMP280;34424;52.234;6.500;2023-07-13T00:58:09;101266.1;;;12.77
48628;BMP280;34424;52.234;6.500;2023-07-13T01:03:09;101270.3;;;12.69
48628;BMP280;34424;52.234;6.500;2023-07-13T01:08:09;101268.2;;;12.61
48628;BMP280;34424;52.234;6.500;2023-07-13T01:13:10;101269.6;;;12.6
48628;BMP280;34424;52.234;6.500;2023-07-13T01:18:10;101269.1;;;12.6
48628;BMP280;34424;52.234;6.500;2023-07-13T01:23:10;101271.2;;;12.54
48628;BMP280;34424;52.234;6.500;2023-07-13T01:28:09;101274.7;;;12.48
48628;BMP280;34424;52.234;6.500;2023-07-13T01:33:09;101270.4;;;12.39
48628;BMP280;34424;52.234;6.500;2023-07-13T01:38:10;101275.7;;;12.29
48628;BMP280;34424;52.234;6.500;2023-07-13T01:43:09;101277;;;12.29
48628;BMP280;34424;52.234;6.500;2023-07-13T01:48:09;101270.7;;;12.16
48628;BMP280;34424;52.234;6.500;2023-07-13T01:53:09;101267.8;;;12.09
48628;BMP280;34424;52.234;6.500;2023-07-13T01:58:09;101266.4;;;12.1
48628;BMP280;34424;52.234;6.500;2023-07-13T02:03:09;101270.4;;;12.15
48628;BMP280;34424;52.234;6.500;2023-07-13T02:08:09;101269;;;12.24
48628;BMP280;34424;52.234;6.500;2023-07-13T02:13:09;101267.3;;;12.28
48628;BMP280;34424;52.234;6.500;2023-07-13T02:18:09;101277.8;;;12.3
48628;BMP280;34424;52.234;6.500;2023-07-13T02:23:09;101270.1;;;12.31
48628;BMP280;34424;52.234;6.500;2023-07-13T02:28:09;101269.8;;;12.41
48628;BMP280;34424;52.234;6.500;2023-07-13T02:33:09;101277.7;;;12.61
48628;BMP280;34424;52.234;6.500;2023-07-13T02:38:09;101274.6;;;12.71
48628;BMP280;34424;52.234;6.500;2023-07-13T02:43:09;101278;;;12.82
48628;BMP280;34424;52.234;6.500;2023-07-13T02:48:09;101286.2;;;12.9
48628;BMP280;34424;52.234;6.500;2023-07-13T02:53:09;101278.5;;;12.93
48628;BMP280;34424;52.234;6.500;2023-07-13T02:58:09;101277;;;12.87
48628;BMP280;34424;52.234;6.500;2023-07-13T03:03:09;101282.1;;;12.68
48628;BMP280;34424;52.234;6.500;2023-07-13T03:08:10;101286.7;;;12.51
48628;BMP280;34424;52.234;6.500;2023-07-13T03:13:09;101287;;;12.42
48628;BMP280;34424;52.234;6.500;2023-07-13T03:18:09;101291;;;12.32
48628;BMP280;34424;52.234;6.500;2023-07-13T03:23:09;101297.2;;;12.38
48628;BMP280;34424;52.234;6.500;2023-07-13T03:28:09;101300.8;;;12.51
48628;BMP280;34424;52.234;6.500;2023-07-13T03:33:09;101300.9;;;12.55
48628;BMP280;34424;52.234;6.500;2023-07-13T03:38:09;101304;;;12.46
48628;BMP280;34424;52.234;6.500;2023-07-13T03:43:09;101315.2;;;12.39
48628;BMP280;34424;52.234;6.500;2023-07-13T03:48:09;101314.2;;;12.34
48628;BMP280;34424;52.234;6.500;2023-07-13T03:53:09;101312.5;;;12.33
48628;BMP280;34424;52.234;6.500;2023-07-13T04:03:09;101327;;;12.37
48628;BMP280;34424;52.234;6.500;2023-07-13T04:08:09;101331.7;;;12.37
48628;BMP280;34424;52.234;6.500;2023-07-13T04:13:09;101335.3;;;12.37
48628;BMP280;34424;52.234;6.500;2023-07-13T04:18:09;101334.4;;;12.32
48628;BMP280;34424;52.234;6.500;2023-07-13T04:23:09;101337.3;;;12.33
48628;BMP280;34424;52.234;6.500;2023-07-13T04:28:09;101337.6;;;12.39
48628;BMP280;34424;52.234;6.500;2023-07-13T04:33:09;101338.4;;;12.47
48628;BMP280;34424;52.234;6.500;2023-07-13T04:38:09;101351;;;12.6
48628;BMP280;34424;52.234;6.500;2023-07-13T04:43:09;101350.5;;;12.8
48628;BMP280;34424;52.234;6.500;2023-07-13T04:48:09;101353;;;12.96
48628;BMP280;34424;52.234;6.500;2023-07-13T04:53:10;101352.7;;;13.11
48628;BMP280;34424;52.234;6.500;2023-07-13T04:58:09;101352.5;;;13.34
48628;BMP280;34424;52.234;6.500;2023-07-13T05:03:09;101358.2;;;13.8
48628;BMP280;34424;52.234;6.500;2023-07-13T05:08:09;101359.4;;;14.87
48628;BMP280;34424;52.234;6.500;2023-07-13T05:13:09;101364.3;;;15.98
48628;BMP280;34424;52.234;6.500;2023-07-13T05:18:09;101365.5;;;16.64
48628;BMP280;34424;52.234;6.500;2023-07-13T05:23:09;101371.6;;;17.33
48628;BMP280;34424;52.234;6.500;2023-07-13T05:28:09;101376.6;;;18.03
48628;BMP280;34424;52.234;6.500;2023-07-13T05:33:09;101379.7;;;18.76
48628;BMP280;34424;52.234;6.500;2023-07-13T05:38:09;101383.6;;;18.78
48628;BMP280;34424;52.234;6.500;2023-07-13T05:43:10;101384.8;;;19.41
48628;BMP280;34424;52.234;6.500;2023-07-13T05:48:10;101381.7;;;19.73
48628;BMP280;34424;52.234;6.500;2023-07-13T05:53:11;101391.3;;;19.46
48628;BMP280;34424;52.234;6.500;2023-07-13T05:58:11;101396.4;;;19.33
48628;BMP280;34424;52.234;6.500;2023-07-13T06:03:10;101405.8;;;19.7
48628;BMP280;34424;52.234;6.500;2023-07-13T06:08:10;101411.5;;;19.95
48628;BMP280;34424;52.234;6.500;2023-07-13T06:13:10;101417.2;;;20.11
48628;BMP280;34424;52.234;6.500;2023-07-13T06:18:10;101423.5;;;19.43
48628;BMP280;34424;52.234;6.500;2023-07-13T06:23:10;101431.6;;;19.28
48628;BMP280;34424;52.234;6.500;2023-07-13T06:28:10;101440;;;19.39
48628;BMP280;34424;52.234;6.500;2023-07-13T06:33:10;101434.6;;;19.82
48628;BMP280;34424;52.234;6.500;2023-07-13T06:38:10;101444;;;19.66
48628;BMP280;34424;52.234;6.500;2023-07-13T06:43:10;101450.4;;;19.16
48628;BMP280;34424;52.234;6.500;2023-07-13T06:48:10;101450.2;;;19.82
48628;BMP280;34424;52.234;6.500;2023-07-13T06:53:10;101459.3;;;19.84
48628;BMP280;34424;52.234;6.500;2023-07-13T06:58:10;101464.5;;;19.75
48628;BMP280;34424;52.234;6.500;2023-07-13T07:03:10;101459.6;;;19.03
48628;BMP280;34424;52.234;6.500;2023-07-13T07:08:10;101464.3;;;18.95
48628;BMP280;34424;52.234;6.500;2023-07-13T07:13:10;101462.9;;;19.49
48628;BMP280;34424;52.234;6.500;2023-07-13T07:18:10;101467.4;;;20.06
48628;BMP280;34424;52.234;6.500;2023-07-13T07:23:10;101467.6;;;20.71
48628;BMP280;34424;52.234;6.500;2023-07-13T07:28:10;101468.9;;;21.51
48628;BMP280;34424;52.234;6.500;2023-07-13T07:33:10;101474.6;;;22.21
48628;BMP280;34424;52.234;6.500;2023-07-13T07:38:10;101469;;;20.8
48628;BMP280;34424;52.234;6.500;2023-07-13T07:43:10;101469;;;21.68
48628;BMP280;34424;52.234;6.500;2023-07-13T07:48:10;101469.6;;;23.44
48628;BMP280;34424;52.234;6.500;2023-07-13T07:53:10;101468;;;21.75
48628;BMP280;34424;52.234;6.500;2023-07-13T07:58:10;101467;;;20.59
48628;BMP280;34424;52.234;6.500;2023-07-13T08:03:10;101470.3;;;20.03
48628;BMP280;34424;52.234;6.500;2023-07-13T08:08:10;101475.4;;;21.73
48628;BMP280;34424;52.234;6.500;2023-07-13T08:13:10;101470.9;;;21.93
48628;BMP280;34424;52.234;6.500;2023-07-13T08:18:10;101465.1;;;22.49
48628;BMP280;34424;52.234;6.500;2023-07-13T08:23:10;101466.9;;;23.37
48628;BMP280;34424;52.234;6.500;2023-07-13T08:28:10;101468.7;;;22.95
48628;BMP280;34424;52.234;6.500;2023-07-13T08:33:10;101460.9;;;22.85
48628;BMP280;34424;52.234;6.500;2023-07-13T08:38:10;101469.7;;;22.04
48628;BMP280;34424;52.234;6.500;2023-07-13T08:43:12;101474.4;;;21.92
48628;BMP280;34424;52.234;6.500;2023-07-13T08:48:11;101473.9;;;21.55
48628;BMP280;34424;52.234;6.500;2023-07-13T08:53:10;101475.1;;;20.75
48628;BMP280;34424;52.234;6.500;2023-07-13T08:58:11;101467.5;;;20.96
48628;BMP280;34424;52.234;6.500;2023-07-13T09:03:12;101455.2;;;21.17
48628;BMP280;34424;52.234;6.500;2023-07-13T09:08:16;101452.3;;;22.15
48628;BMP280;34424;52.234;6.500;2023-07-13T09:13:12;101462.8;;;22.57
48628;BMP280;34424;52.234;6.500;2023-07-13T09:18:11;101457.7;;;22.91
48628;BMP280;34424;52.234;6.500;2023-07-13T09:23:11;101461.6;;;22.58
48628;BMP280;34424;52.234;6.500;2023-07-13T09:28:13;101463.5;;;21.57
48628;BMP280;34424;52.234;6.500;2023-07-13T09:33:10;101466.7;;;19.74
48628;BMP280;34424;52.234;6.500;2023-07-13T09:38:14;101465.7;;;19.6
48628;BMP280;34424;52.234;6.500;2023-07-13T09:43:10;101463.8;;;20.43
48628;BMP280;34424;52.234;6.500;2023-07-13T09:48:10;101467.5;;;22.33
48628;BMP280;34424;52.234;6.500;2023-07-13T09:53:15;101463.1;;;21.4
48628;BMP280;34424;52.234;6.500;2023-07-13T09:58:11;101471.3;;;21.83
48628;BMP280;34424;52.234;6.500;2023-07-13T10:03:18;101469.3;;;23.4
48628;BMP280;34424;52.234;6.500;2023-07-13T10:08:12;101467.6;;;23.31
48628;BMP280;34424;52.234;6.500;2023-07-13T10:13:11;101471.6;;;23.05
48628;BMP280;34424;52.234;6.500;2023-07-13T10:18:10;101476.3;;;22.45
48628;BMP280;34424;52.234;6.500;2023-07-13T10:23:13;101489.4;;;21.77
48628;BMP280;34424;52.234;6.500;2023-07-13T10:28:13;101511.2;;;20.54
48628;BMP280;34424;52.234;6.500;2023-07-13T10:33:12;101501.6;;;18.63
48628;BMP280;34424;52.234;6.500;2023-07-13T10:38:11;101504.6;;;18.21
48628;BMP280;34424;52.234;6.500;2023-07-13T10:43:11;101520.6;;;19.11
48628;BMP280;34424;52.234;6.500;2023-07-13T10:48:10;101517.1;;;22.55
48628;BMP280;34424;52.234;6.500;2023-07-13T10:53:20;101516.4;;;24.98
48628;BMP280;34424;52.234;6.500;2023-07-13T10:58:18;101518.9;;;24.24
48628;BMP280;34424;52.234;6.500;2023-07-13T11:03:14;101517.6;;;24.65
48628;BMP280;34424;52.234;6.500;2023-07-13T11:08:16;101506.7;;;25.45
48628;BMP280;34424;52.234;6.500;2023-07-13T11:13:27;101508.9;;;26.03
48628;BMP280;34424;52.234;6.500;2023-07-13T11:18:19;101502.8;;;26.16
48628;BMP280;34424;52.234;6.500;2023-07-13T11:23:17;101514.6;;;26.2
48628;BMP280;34424;52.234;6.500;2023-07-13T11:28:15;101526.6;;;24.48
48628;BMP280;34424;52.234;6.500;2023-07-13T11:38:14;101578.6;;;16.92
48628;BMP280;34424;52.234;6.500;2023-07-13T11:43:11;101561.5;;;15.77
48628;BMP280;34424;52.234;6.500;2023-07-13T11:48:20;101565.7;;;16.79
48628;BMP280;34424;52.234;6.500;2023-07-13T11:53:11;101567.1;;;19.65
48628;BMP280;34424;52.234;6.500;2023-07-13T11:58:11;101558;;;20.7
48628;BMP280;34424;52.234;6.500;2023-07-13T12:03:10;101555.7;;;21.99
48628;BMP280;34424;52.234;6.500;2023-07-13T12:08:15;101551.5;;;24.21
48628;BMP280;34424;52.234;6.500;2023-07-13T12:13:11;101547.4;;;24.33
48628;BMP280;34424;52.234;6.500;2023-07-13T12:18:17;101546.4;;;24.65
48628;BMP280;34424;52.234;6.500;2023-07-13T12:23:13;101559.3;;;22.43
48628;BMP280;34424;52.234;6.500;2023-07-13T12:33:11;101558.9;;;21.16
48628;BMP280;34424;52.234;6.500;2023-07-13T12:38:11;101561;;;21.91
48628;BMP280;34424;52.234;6.500;2023-07-13T12:43:14;101560.9;;;23.45
48628;BMP280;34424;52.234;6.500;2023-07-13T12:48:14;101556.8;;;24.78
48628;BMP280;34424;52.234;6.500;2023-07-13T12:53:12;101558.1;;;24.94
48628;BMP280;34424;52.234;6.500;2023-07-13T12:58:12;101559.8;;;24.45
48628;BMP280;34424;52.234;6.500;2023-07-13T13:03:12;101560.9;;;22.49
48628;BMP280;34424;52.234;6.500;2023-07-13T13:08:11;101562.6;;;21.75
48628;BMP280;34424;52.234;6.500;2023-07-13T13:13:10;101569;;;22.35
48628;BMP280;34424;52.234;6.500;2023-07-13T13:18:13;101576.4;;;22.84
48628;BMP280;34424;52.234;6.500;2023-07-13T13:23:11;101578.4;;;21.47
48628;BMP280;34424;52.234;6.500;2023-07-13T13:28:13;101580.4;;;20.59
48628;BMP280;34424;52.234;6.500;2023-07-13T13:33:11;101573.3;;;20.9
48628;BMP280;34424;52.234;6.500;2023-07-13T13:38:13;101573.2;;;21.05
48628;BMP280;34424;52.234;6.500;2023-07-13T13:48:11;101583.3;;;22.57
48628;BMP280;34424;52.234;6.500;2023-07-13T13:53:11;101578.4;;;22.54
48628;BMP280;34424;52.234;6.500;2023-07-13T13:58:10;101581;;;23.14
48628;BMP280;34424;52.234;6.500;2023-07-13T14:03:11;101580.1;;;24.28
48628;BMP280;34424;52.234;6.500;2023-07-13T14:08:12;101582.9;;;24.19
48628;BMP280;34424;52.234;6.500;2023-07-13T14:13:13;101586.3;;;24.19
48628;BMP280;34424;52.234;6.500;2023-07-13T14:18:10;101583.2;;;24.03
48628;BMP280;34424;52.234;6.500;2023-07-13T14:23:10;101577.3;;;24.05
48628;BMP280;34424;52.234;6.500;2023-07-13T14:28:15;101580;;;23.62
48628;BMP280;34424;52.234;6.500;2023-07-13T14:33:12;101571.9;;;23.79
48628;BMP280;34424;52.234;6.500;2023-07-13T14:38:12;101568.7;;;23.56
48628;BMP280;34424;52.234;6.500;2023-07-13T14:43:13;101567.8;;;23.37
48628;BMP280;34424;52.234;6.500;2023-07-13T14:48:13;101560.8;;;22.83
48628;BMP280;34424;52.234;6.500;2023-07-13T14:53:12;101562.3;;;21.87
48628;BMP280;34424;52.234;6.500;2023-07-13T14:58:10;101564.3;;;21.36
48628;BMP280;34424;52.234;6.500;2023-07-13T15:03:14;101566.9;;;21
48628;BMP280;34424;52.234;6.500;2023-07-13T15:08:11;101568.4;;;20.7
48628;BMP280;34424;52.234;6.500;2023-07-13T15:13:16;101575.7;;;20.34
48628;BMP280;34424;52.234;6.500;2023-07-13T15:18:11;101574.4;;;20.29
48628;BMP280;34424;52.234;6.500;2023-07-13T15:23:12;101565.9;;;20.42
48628;BMP280;34424;52.234;6.500;2023-07-13T15:28:10;101566;;;21.74
48628;BMP280;34424;52.234;6.500;2023-07-13T15:33:13;101564.6;;;23.44
48628;BMP280;34424;52.234;6.500;2023-07-13T15:38:16;101560.9;;;23.7
48628;BMP280;34424;52.234;6.500;2023-07-13T15:43:13;101560.1;;;24.1
48628;BMP280;34424;52.234;6.500;2023-07-13T15:48:15;101562.3;;;22.98
48628;BMP280;34424;52.234;6.500;2023-07-13T15:53:11;101561.8;;;22.11
48628;BMP280;34424;52.234;6.500;2023-07-13T15:58:12;101567.4;;;22.71
48628;BMP280;34424;52.234;6.500;2023-07-13T16:03:10;101568;;;23.15
48628;BMP280;34424;52.234;6.500;2023-07-13T16:08:14;101562.6;;;23.49
48628;BMP280;34424;52.234;6.500;2023-07-13T16:13:12;101566.4;;;22.8
48628;BMP280;34424;52.234;6.500;2023-07-13T16:18:10;101563.8;;;23.01
48628;BMP280;34424;52.234;6.500;2023-07-13T16:23:11;101568.4;;;23.22
48628;BMP280;34424;52.234;6.500;2023-07-13T16:28:11;101566.8;;;24.02
48628;BMP280;34424;52.234;6.500;2023-07-13T16:33:10;101571.3;;;24.46
48628;BMP280;34424;52.234;6.500;2023-07-13T16:38:13;101574.8;;;23.91
48628;BMP280;34424;52.234;6.500;2023-07-13T16:43:12;101578.7;;;23.97
48628;BMP280;34424;52.234;6.500;2023-07-13T16:48:13;101566.6;;;23.81
48628;BMP280;34424;52.234;6.500;2023-07-13T16:53:19;101570.5;;;23.21
48628;BMP280;34424;52.234;6.500;2023-07-13T16:58:11;101568.9;;;22.24
48628;BMP280;34424;52.234;6.500;2023-07-13T17:03:10;101576.3;;;22.42
48628;BMP280;34424;52.234;6.500;2023-07-13T17:08:14;101575.5;;;23.35
48628;BMP280;34424;52.234;6.500;2023-07-13T17:13:12;101574.1;;;23.43
48628;BMP280;34424;52.234;6.500;2023-07-13T17:18:11;101579.8;;;23.82
48628;BMP280;34424;52.234;6.500;2023-07-13T17:23:13;101581.4;;;23.66
48628;BMP280;34424;52.234;6.500;2023-07-13T17:28:10;101585.3;;;23.5
48628;BMP280;34424;52.234;6.500;2023-07-13T17:33:14;101591.8;;;23.19
48628;BMP280;34424;52.234;6.500;2023-07-13T17:38:10;101590.3;;;22.63
48628;BMP280;34424;52.234;6.500;2023-07-13T17:43:10;101590.1;;;22.44
48628;BMP280;34424;52.234;6.500;2023-07-13T17:48:10;101592.4;;;22.46
48628;BMP280;34424;52.234;6.500;2023-07-13T17:53:12;101588.8;;;22.21
48628;BMP280;34424;52.234;6.500;2023-07-13T17:58:10;101593.2;;;21.72
48628;BMP280;34424;52.234;6.500;2023-07-13T18:03:13;101592.9;;;21.13
48628;BMP280;34424;52.234;6.500;2023-07-13T18:08:17;101597;;;20.58
48628;BMP280;34424;52.234;6.500;2023-07-13T18:13:10;101598.1;;;20.21
48628;BMP280;34424;52.234;6.500;2023-07-13T18:18:10;101606.1;;;20
48628;BMP280;34424;52.234;6.500;2023-07-13T18:23:12;101607.1;;;19.8
48628;BMP280;34424;52.234;6.500;2023-07-13T18:28:10;101606.9;;;19.58
48628;BMP280;34424;52.234;6.500;2023-07-13T18:33:15;101616.6;;;19.32
48628;BMP280;34424;52.234;6.500;2023-07-13T18:38:13;101625.2;;;19.17
48628;BMP280;34424;52.234;6.500;2023-07-13T18:43:11;101626.7;;;18.96
48628;BMP280;34424;52.234;6.500;2023-07-13T18:48:12;101624;;;18.81
48628;BMP280;34424;52.234;6.500;2023-07-13T18:53:12;101629.4;;;18.57
48628;BMP280;34424;52.234;6.500;2023-07-13T18:58:10;101633.2;;;18.39
48628;BMP280;34424;52.234;6.500;2023-07-13T19:03:12;101640;;;18.17
48628;BMP280;34424;52.234;6.500;2023-07-13T19:08:11;101639.6;;;17.95
48628;BMP280;34424;52.234;6.500;2023-07-13T19:13:19;101638.2;;;17.71
48628;BMP280;34424;52.234;6.500;2023-07-13T19:18:13;101638.3;;;17.46
48628;BMP280;34424;52.234;6.500;2023-07-13T19:23:14;101643.5;;;17.23
48628;BMP280;34424;52.234;6.500;2023-07-13T19:28:19;101653.4;;;16.98
48628;BMP280;34424;52.234;6.500;2023-07-13T19:33:12;101657.2;;;16.72
48628;BMP280;34424;52.234;6.500;2023-07-13T19:38:11;101654.1;;;16.49
48628;BMP280;34424;52.234;6.500;2023-07-13T19:43:12;101669.3;;;16.28
48628;BMP280;34424;52.234;6.500;2023-07-13T19:48:10;101672.5;;;16.09
48628;BMP280;34424;52.234;6.500;2023-07-13T19:53:13;101673.3;;;15.92
48628;BMP280;34424;52.234;6.500;2023-07-13T19:58:11;101682.8;;;15.8
48628;BMP280;34424;52.234;6.500;2023-07-13T20:03:10;101689;;;15.8
48628;BMP280;34424;52.234;6.500;2023-07-13T20:08:16;101693;;;15.85
48628;BMP280;34424;52.234;6.500;2023-07-13T20:13:11;101700.8;;;15.93
48628;BMP280;34424;52.234;6.500;2023-07-13T20:18:11;101694.6;;;15.86
48628;BMP280;34424;52.234;6.500;2023-07-13T20:23:13;101698.6;;;15.63
48628;BMP280;34424;52.234;6.500;2023-07-13T20:28:10;101696.8;;;15.41
48628;BMP280;34424;52.234;6.500;2023-07-13T20:33:11;101698.7;;;15.22
48628;BMP280;34424;52.234;6.500;2023-07-13T20:38:12;101691.9;;;14.97
48628;BMP280;34424;52.234;6.500;2023-07-13T20:43:11;101690.9;;;14.72
48628;BMP280;34424;52.234;6.500;2023-07-13T20:48:20;101690.6;;;14.53
48628;BMP280;34424;52.234;6.500;2023-07-13T20:53:11;101692.6;;;14.36
48628;BMP280;34424;52.234;6.500;2023-07-13T20:58:10;101699.1;;;14.19
48628;BMP280;34424;52.234;6.500;2023-07-13T21:03:12;101701.7;;;14.13
48628;BMP280;34424;52.234;6.500;2023-07-13T21:08:14;101704;;;14.02
48628;BMP280;34424;52.234;6.500;2023-07-13T21:13:10;101703;;;13.9
48628;BMP280;34424;52.234;6.500;2023-07-13T21:18:13;101698.8;;;13.76
48628;BMP280;34424;52.234;6.500;2023-07-13T21:23:19;101705;;;13.68
48628;BMP280;34424;52.234;6.500;2023-07-13T21:28:10;101702.5;;;13.64
48628;BMP280;34424;52.234;6.500;2023-07-13T21:33:10;101702;;;13.6
48628;BMP280;34424;52.234;6.500;2023-07-13T21:38:12;101702.7;;;13.51
48628;BMP280;34424;52.234;6.500;2023-07-13T21:43:12;101704.3;;;13.41
48628;BMP280;34424;52.234;6.500;2023-07-13T21:48:10;101698.5;;;13.35
48628;BMP280;34424;52.234;6.500;2023-07-13T21:53:18;101703.8;;;13.23
48628;BMP280;34424;52.234;6.500;2023-07-13T21:58:12;101704.7;;;13.12
48628;BMP280;34424;52.234;6.500;2023-07-13T22:03:13;101709.3;;;13.09
48628;BMP280;34424;52.234;6.500;2023-07-13T22:08:12;101706.9;;;13.06
48628;BMP280;34424;52.234;6.500;2023-07-13T22:13:11;101709.8;;;13.03
48628;BMP280;34424;52.234;6.500;2023-07-13T22:18:13;101708.6;;;13
48628;BMP280;34424;52.234;6.500;2023-07-13T22:23:16;101705.6;;;12.86
48628;BMP280;34424;52.234;6.500;2023-07-13T22:28:11;101709.4;;;12.88
48628;BMP280;34424;52.234;6.500;2023-07-13T22:33:14;101715.8;;;13.01
48628;BMP280;34424;52.234;6.500;2023-07-13T22:38:15;101717;;;13.08
48628;BMP280;34424;52.234;6.500;2023-07-13T22:48:14;101716.2;;;13.11
48628;BMP280;34424;52.234;6.500;2023-07-13T22:53:13;101714.8;;;13.22
48628;BMP280;34424;52.234;6.500;2023-07-13T22:58:11;101706.8;;;13.35
48628;BMP280;34424;52.234;6.500;2023-07-13T23:03:13;101698.8;;;13.32
48628;BMP280;34424;52.234;6.500;2023-07-13T23:08:13;101700.7;;;13.2
48628;BMP280;34424;52.234;6.500;2023-07-13T23:13:12;101701.9;;;13.04
48628;BMP280;34424;52.234;6.500;2023-07-13T23:18:11;101696.9;;;12.98
48628;BMP280;34424;52.234;6.500;2023-07-13T23:23:12;101690.9;;;12.92
48628;BMP280;34424;52.234;6.500;2023-07-13T23:28:11;101687.1;;;12.89
48628;BMP280;34424;52.234;6.500;2023-07-13T23:33:14;101680.8;;;12.87
48628;BMP280;34424;52.234;6.500;2023-07-13T23:38:11;101684.7;;;12.82
48628;BMP280;34424;52.234;6.500;2023-07-13T23:43:11;101692.5;;;12.96
48628;BMP280;34424;52.234;6.500;2023-07-13T23:48:12;101693.7;;;13.15
48628;BMP280;34424;52.234;6.500;2023-07-13T23:53:12;101691.5;;;13.23
48628;BMP280;34424;52.234;6.500;2023-07-13T23:58:11;101693.7;;;13.28
